UKLR/RWN METAR and TAF weather

Enter ICAO airport designator
Station Type Date Time Source
UKLR METAR 2020/01/21 15:00 UTC NOAA

UKLR 211500Z 27009MPS CAVOK 02/M02 Q1028 NOSIG


Station Type Date Time Source
UKLR Decoded METAR 2020/01/21 15:00 UTC NOAA

Rivne, Ukraine (UKLR) 50-35N 026-08E
Jan 21, 2020 - 10:00 AM EST / 2020.01.21 1500 UTC
Wind: from the W (270 degrees) at 20 MPH (17 KT):0
Visibility: greater than 7 mile(s):0
Temperature: 35 F (2 C)
Windchill: 24 F (-4 C):1
Dew Point: 28 F (-2 C)
Relative Humidity: 74%
Pressure (altimeter): 30.36 in. Hg (1028 hPa)
ob: UKLR 211500Z 27009MPS CAVOK 02/M02 Q1028 NOSIG
cycle: 15

Station Type Date Time Source
UKLR TAF 2019/08/16 12:15 UTC NOAA

TAF TAF UKLR 161105Z 1612/1821 35003MPS 9999 BKN020 SCT023CB

Example: see airport list